Sligo Airport - TAF
(Terminal Area Forecast)

Issued at 18:06 UTC on Wed. 26-Feb-20

--- METARS(SA) ---

METAR EISG(SLIGO) 261800Z 20004KT 150V240 9999 FEW042 03/03 Q1003 =

--- TAFS() ---

TAF EISG(SLIGO) 261700Z 2618/2703 23008KT 9999 SCT020 TEMPO

2618/2619 -SHRASN SCT020CB PROB30 TEMPO 2622/2701 5000 -RASN BKN010 =

--- SIGMETS(WS) ---

IE - No VALID SIGMETS/Warnings FOR THIS AREA

--- SIGMETS Volcanic(WV) ---

IE - No VALID SIGMETS/Warnings FOR THIS AREA

--- SIGMETS(WS) ---

UK - No VALID SIGMETS/Warnings FOR THIS AREA

Sligo Airport - METARs

Latest METARs for Sligo and Donegal Airports - updated every 30 mins